createdAt,value
2023-04-16T00:01:05.977Z,8.15
2023-04-16T00:03:32.686Z,7.43
2023-04-16T00:05:59.330Z,8.30
2023-04-16T00:08:25.893Z,8.70
2023-04-16T00:10:55.409Z,8.98
2023-04-16T00:13:22.899Z,8.98
2023-04-16T00:15:49.296Z,8.57
2023-04-16T00:18:15.722Z,8.55
2023-04-16T00:20:42.148Z,8.07
2023-04-16T00:23:08.519Z,8.35
2023-04-16T00:25:34.891Z,8.93
2023-04-16T00:28:01.260Z,8.48
2023-04-16T00:30:27.706Z,8.00
2023-04-16T00:32:54.080Z,8.00
2023-04-16T00:35:20.543Z,8.63
2023-04-16T00:37:46.913Z,8.20
2023-04-16T00:40:13.303Z,8.80
2023-04-16T00:42:39.655Z,9.20
2023-04-16T00:45:06.522Z,8.20
2023-04-16T00:47:33.726Z,8.38
2023-04-16T00:50:00.158Z,8.32
2023-04-16T00:52:27.480Z,10.25
2023-04-16T00:54:54.028Z,9.40
2023-04-16T00:57:23.760Z,8.80
2023-04-16T00:59:50.536Z,9.10
2023-04-16T01:02:17.358Z,9.63
2023-04-16T01:04:43.868Z,8.63
2023-04-16T01:07:10.217Z,9.73
2023-04-16T01:09:36.572Z,9.33
2023-04-16T01:12:04.121Z,9.15
2023-04-16T01:14:31.762Z,9.25
2023-04-16T01:16:58.100Z,8.30
2023-04-16T01:19:24.460Z,10.32
2023-04-16T01:21:51.013Z,9.33
2023-04-16T01:24:17.415Z,8.50
2023-04-16T01:26:44.826Z,10.32
2023-04-16T01:29:11.402Z,7.80
2023-04-16T01:31:37.885Z,8.60
2023-04-16T01:34:04.375Z,9.07
2023-04-16T01:36:30.759Z,8.70
2023-04-16T01:38:57.182Z,8.95
2023-04-16T01:41:23.547Z,7.82
2023-04-16T01:43:49.920Z,7.65
2023-04-16T01:46:31.504Z,8.37
2023-04-16T01:48:58.451Z,8.88
2023-04-16T01:51:25.043Z,8.05
2023-04-16T01:53:51.447Z,9.00
2023-04-16T01:56:17.860Z,9.20
2023-04-16T01:58:46.055Z,9.37
2023-04-16T02:01:13.399Z,9.52
2023-04-16T02:03:40.713Z,9.77
2023-04-16T02:06:07.405Z,8.77
2023-04-16T02:08:33.813Z,8.50
2023-04-16T02:11:00.943Z,8.87
2023-04-16T02:13:27.438Z,9.30
2023-04-16T02:15:53.870Z,9.07
2023-04-16T02:18:20.241Z,8.73
2023-04-16T02:20:47.168Z,10.77
2023-04-16T02:23:15.051Z,10.20
2023-04-16T02:25:42.271Z,9.55
2023-04-16T02:28:09.388Z,9.25
2023-04-16T02:30:36.854Z,10.73
2023-04-16T02:33:05.592Z,8.70
2023-04-16T02:35:35.103Z,8.87
2023-04-16T02:38:02.844Z,8.45
2023-04-16T02:40:29.344Z,8.52
2023-04-16T02:42:56.036Z,9.95
2023-04-16T02:45:23.283Z,9.93
2023-04-16T02:47:50.114Z,9.07
2023-04-16T02:50:17.385Z,9.65
2023-04-16T02:52:43.769Z,9.75
2023-04-16T02:55:10.898Z,8.70
2023-04-16T02:57:37.271Z,7.97
2023-04-16T03:00:06.725Z,8.87
2023-04-16T03:02:33.166Z,8.63
2023-04-16T03:04:59.586Z,8.23
2023-04-16T03:07:26.189Z,8.98
2023-04-16T03:09:52.639Z,9.75
2023-04-16T03:12:19.029Z,9.33
2023-04-16T03:14:45.375Z,9.15
2023-04-16T03:17:12.097Z,8.55
2023-04-16T03:19:38.499Z,8.88
2023-04-16T03:22:04.909Z,9.00
2023-04-16T03:24:32.190Z,7.83
2023-04-16T03:26:58.890Z,8.98
2023-04-16T03:29:26.695Z,8.45
2023-04-16T03:31:53.207Z,8.90
2023-04-16T03:34:19.580Z,8.73
2023-04-16T08:11:15.691Z,8.68
2023-04-16T08:13:43.125Z,9.80
2023-04-16T08:16:09.425Z,9.95
2023-04-16T08:18:35.736Z,9.25
2023-04-16T08:21:02.113Z,8.00
2023-04-16T08:23:28.454Z,7.88
2023-04-16T08:25:54.670Z,8.77
2023-04-16T08:28:20.931Z,8.85
2023-04-16T08:30:47.208Z,8.38
2023-04-16T08:33:14.188Z,7.53
2023-04-16T08:35:41.250Z,6.93
2023-04-16T08:38:07.713Z,7.82
2023-04-16T08:40:37.808Z,7.18
2023-04-16T08:43:05.696Z,8.45
2023-04-16T08:45:33.222Z,7.10
2023-04-16T08:47:59.542Z,7.80
2023-04-16T08:50:26.568Z,7.90
2023-04-16T08:52:54.007Z,7.90
2023-04-16T08:55:26.178Z,8.40
2023-04-16T08:57:57.519Z,7.87
2023-04-16T09:00:23.943Z,8.18
2023-04-16T09:02:51.682Z,7.60
2023-04-16T09:05:18.963Z,6.95
2023-04-16T09:07:46.186Z,7.22
2023-04-16T09:10:14.351Z,7.27
2023-04-16T09:12:42.229Z,6.70
2023-04-16T09:15:10.254Z,6.88
2023-04-16T09:17:36.599Z,8.20
2023-04-16T09:20:05.847Z,7.47
2023-04-16T09:22:32.142Z,6.43
2023-04-16T09:24:58.373Z,6.88
2023-04-16T09:27:26.154Z,6.72
2023-04-16T09:29:52.496Z,6.13
2023-04-16T09:34:55.942Z,6.38
2023-04-16T09:37:22.234Z,6.13
2023-04-16T09:39:58.357Z,4.77
2023-04-16T09:42:27.060Z,5.40
2023-04-16T09:44:53.834Z,5.13
2023-04-16T09:47:20.505Z,4.80
2023-04-16T09:49:47.169Z,4.18
2023-04-16T09:52:20.639Z,4.40
2023-04-16T09:54:46.920Z,4.55
2023-04-16T09:57:14.615Z,3.70
2023-04-16T09:59:40.850Z,3.50
2023-04-16T10:02:14.669Z,4.45
2023-04-16T10:04:50.400Z,3.90
2023-04-16T10:07:16.966Z,4.82
2023-04-16T10:09:43.466Z,4.30
2023-04-16T10:12:10.222Z,4.30
2023-04-16T10:14:36.513Z,4.47
2023-04-16T10:17:03.702Z,4.43
2023-04-16T10:20:03.765Z,4.47
2023-04-16T10:22:30.254Z,4.10
2023-04-16T10:24:56.754Z,3.50
2023-04-16T10:27:24.507Z,3.13
2023-04-16T10:29:51.098Z,3.25
2023-04-16T10:32:18.200Z,3.47
2023-04-16T10:34:44.566Z,5.30
2023-04-16T10:37:10.823Z,5.88
2023-04-16T10:39:37.430Z,5.25
2023-04-16T10:42:08.113Z,4.88
2023-04-16T10:44:34.419Z,5.73
2023-04-16T10:47:00.783Z,5.00
2023-04-16T10:49:28.113Z,5.22
2023-04-16T10:51:55.573Z,5.25
2023-04-16T10:54:26.422Z,4.78
2023-04-16T10:56:53.528Z,5.10
2023-04-16T10:59:23.071Z,4.38
2023-04-16T11:01:54.278Z,5.07
2023-04-16T11:04:20.806Z,4.38
2023-04-16T11:07:03.093Z,4.38
2023-04-16T11:09:51.019Z,4.53
2023-04-16T11:12:21.265Z,4.30
2023-04-16T11:14:52.925Z,4.43
2023-04-16T11:17:19.973Z,4.10
2023-04-16T11:19:46.746Z,4.45
2023-04-16T11:22:15.271Z,4.77
2023-04-16T11:24:41.651Z,4.40
2023-04-16T11:27:08.385Z,3.55
2023-04-16T11:29:34.701Z,4.10
2023-04-16T11:32:01.011Z,3.72
2023-04-16T11:34:27.287Z,3.60
2023-04-16T11:36:54.671Z,3.85
2023-04-16T11:39:22.651Z,3.58
2023-04-16T11:41:49.789Z,3.65
2023-04-16T11:44:19.304Z,4.00
2023-04-16T11:46:45.656Z,4.03
2023-04-16T11:49:12.330Z,3.88
2023-04-16T11:51:42.877Z,3.83
2023-04-16T11:54:17.958Z,4.10
2023-04-16T11:56:46.751Z,3.20
2023-04-16T11:59:31.061Z,3.40
2023-04-16T12:01:58.522Z,3.72
2023-04-16T12:04:26.145Z,4.18
2023-04-16T12:07:07.942Z,4.18
2023-04-16T12:09:40.125Z,4.22
2023-04-16T12:12:06.959Z,5.43
2023-04-16T12:14:33.302Z,5.03
2023-04-16T12:17:18.449Z,5.00
2023-04-16T12:19:48.469Z,4.70
2023-04-16T12:22:14.744Z,5.38
2023-04-16T12:24:41.099Z,4.97
2023-04-16T12:27:08.955Z,4.97
2023-04-16T12:29:35.497Z,5.68
2023-04-16T12:32:01.890Z,5.80
2023-04-16T12:34:48.510Z,6.88
2023-04-16T12:37:14.828Z,5.40
2023-04-16T12:39:41.431Z,6.05
2023-04-16T12:42:09.835Z,5.38
2023-04-16T12:44:36.234Z,5.25
2023-04-16T12:47:02.569Z,5.80
2023-04-16T12:49:28.815Z,5.40
2023-04-16T12:51:55.045Z,4.82
2023-04-16T12:54:21.289Z,5.82
2023-04-16T12:56:48.577Z,5.35
2023-04-16T12:59:14.861Z,5.38
2023-04-16T13:01:41.115Z,5.20
2023-04-16T13:04:07.746Z,5.30
2023-04-16T13:06:34.432Z,5.88
2023-04-16T13:09:00.718Z,4.88
2023-04-16T13:11:27.127Z,4.40
2023-04-16T13:13:53.406Z,4.30
2023-04-16T13:16:19.694Z,4.53
2023-04-16T13:18:46.123Z,4.97
2023-04-16T13:21:12.434Z,4.55
2023-04-16T13:23:39.878Z,4.22
2023-04-16T13:26:06.207Z,3.50
2023-04-16T13:28:32.506Z,3.67
2023-04-16T13:30:59.187Z,3.95
2023-04-16T13:33:25.888Z,3.90
2023-04-16T13:35:52.135Z,4.07
2023-04-16T13:38:18.469Z,3.53
2023-04-16T13:40:44.853Z,3.10
2023-04-16T13:43:11.449Z,2.80
2023-04-16T13:45:38.054Z,2.95
2023-04-16T13:48:04.452Z,3.03
2023-04-16T13:50:31.741Z,2.80
2023-04-16T13:52:58.027Z,3.00
2023-04-16T13:55:25.392Z,2.92
2023-04-16T13:57:53.185Z,2.47
2023-04-16T14:00:19.658Z,2.65
2023-04-16T14:02:46.205Z,2.40
2023-04-16T14:05:12.693Z,2.20
2023-04-16T14:07:38.988Z,2.47
2023-04-16T14:10:05.424Z,2.10
2023-04-16T14:12:32.400Z,2.20
2023-04-16T14:14:59.816Z,2.27
2023-04-16T14:17:26.228Z,2.40
2023-04-16T14:19:52.520Z,2.30
2023-04-16T14:22:18.746Z,2.30
2023-04-16T14:24:46.173Z,2.53
2023-04-16T14:27:12.394Z,2.40
2023-04-16T14:29:38.651Z,2.25
2023-04-16T14:32:05.278Z,2.53
2023-04-16T14:34:31.613Z,2.45
2023-04-16T14:36:57.904Z,2.20
2023-04-16T14:39:24.242Z,1.83
2023-04-16T14:41:50.710Z,1.80
2023-04-16T14:44:16.971Z,2.20
2023-04-16T14:46:43.732Z,2.45
2023-04-16T14:49:12.472Z,3.00
2023-04-16T14:51:38.911Z,1.90
2023-04-16T14:54:05.194Z,1.95
2023-04-16T14:56:45.576Z,2.67
2023-04-16T14:59:18.339Z,2.17
2023-04-16T15:01:58.823Z,3.35
2023-04-16T15:04:42.531Z,3.13
2023-04-16T15:07:10.057Z,4.03
2023-04-16T15:09:39.862Z,2.78
2023-04-16T15:12:06.432Z,2.42
2023-04-16T15:14:33.692Z,2.75
2023-04-16T15:17:15.094Z,2.90
2023-04-16T15:19:52.260Z,2.17
2023-04-16T15:22:20.760Z,2.15
2023-04-16T15:24:54.120Z,2.17
2023-04-16T15:27:20.780Z,2.10
2023-04-16T15:29:52.325Z,2.00
2023-04-16T15:32:18.810Z,2.40
2023-04-16T15:34:53.578Z,2.40
2023-04-16T15:37:20.065Z,2.65
2023-04-16T15:39:46.546Z,2.40
2023-04-16T15:42:13.484Z,2.87
2023-04-16T15:44:42.673Z,2.83
2023-04-16T15:47:21.570Z,2.80
2023-04-16T15:50:10.469Z,3.15
2023-04-16T15:52:44.500Z,3.70
2023-04-16T15:55:17.211Z,5.27
2023-04-16T15:57:44.586Z,5.72
2023-04-16T16:00:16.929Z,4.57
2023-04-16T16:02:44.614Z,3.22
2023-04-16T16:05:11.795Z,3.20
2023-04-16T16:07:38.197Z,3.80
2023-04-16T16:10:05.954Z,6.93
2023-04-16T16:12:32.896Z,4.78
2023-04-16T16:15:02.116Z,4.05
2023-04-16T16:17:28.886Z,4.72
2023-04-16T16:19:57.406Z,4.10
2023-04-16T16:22:23.832Z,5.55
2023-04-16T16:24:53.342Z,4.50
2023-04-16T16:27:20.905Z,5.20
2023-04-16T16:29:47.194Z,4.97
2023-04-16T16:32:13.743Z,4.77
2023-04-16T16:34:40.006Z,4.50
2023-04-16T16:37:06.345Z,4.13
2023-04-16T16:39:32.751Z,3.75
2023-04-16T16:41:58.986Z,4.03
2023-04-16T16:44:25.304Z,3.37
2023-04-16T16:46:51.773Z,3.38
2023-04-16T16:49:18.306Z,3.40
2023-04-16T16:51:48.117Z,3.90
2023-04-16T16:54:14.617Z,3.80
2023-04-16T16:56:40.896Z,3.50
2023-04-16T16:59:08.892Z,2.88
2023-04-16T17:01:35.521Z,3.22
2023-04-16T17:04:01.974Z,3.08
2023-04-16T17:06:28.664Z,3.08
2023-04-16T17:08:56.016Z,2.87
2023-04-16T17:11:22.272Z,2.55
2023-04-16T17:13:48.537Z,2.80
2023-04-16T17:16:16.628Z,2.88
2023-04-16T17:18:42.914Z,3.00
2023-04-16T17:21:09.150Z,3.00
2023-04-16T17:23:35.402Z,3.25
2023-04-16T17:26:01.727Z,3.20
2023-04-16T17:28:27.986Z,3.20
2023-04-16T17:30:56.103Z,3.75
2023-04-16T17:33:22.442Z,4.60
2023-04-16T17:35:48.758Z,4.53
2023-04-16T17:38:15.024Z,3.70
2023-04-16T17:40:41.469Z,3.47
2023-04-16T17:43:07.701Z,3.75
2023-04-16T17:45:34.007Z,5.40
2023-04-16T17:48:01.009Z,4.15
2023-04-16T17:50:27.459Z,5.50
2023-04-16T17:52:54.765Z,5.20
2023-04-16T17:55:21.055Z,6.47
2023-04-16T17:57:47.309Z,7.33
2023-04-16T18:00:14.357Z,6.50
2023-04-16T18:02:41.448Z,5.55
2023-04-16T18:05:08.247Z,5.43
2023-04-16T18:07:35.433Z,7.25
2023-04-16T18:10:01.720Z,7.70
2023-04-16T18:12:27.998Z,8.70
2023-04-16T18:14:54.230Z,7.97
2023-04-16T18:17:22.660Z,5.85
